sensor_id;sensor_type;location;lat;lon;timestamp;pressure;altitude;pressure_sealevel;temperature;humidity
49915;BME280;35806;47.958;13.158;2023-07-31T00:01:03;94864.18;;;16.35;50.26
49915;BME280;35806;47.958;13.158;2023-07-31T00:03:31;94863.33;;;15.97;50.77
49915;BME280;35806;47.958;13.158;2023-07-31T00:05:58;94867.96;;;16.04;50.68
49915;BME280;35806;47.958;13.158;2023-07-31T00:08:26;94864.76;;;16.40;50.39
49915;BME280;35806;47.958;13.158;2023-07-31T00:10:53;94864.91;;;15.98;50.49
49915;BME280;35806;47.958;13.158;2023-07-31T00:13:21;94865.49;;;15.82;51.02
49915;BME280;35806;47.958;13.158;2023-07-31T00:15:48;94866.39;;;16.22;51.32
49915;BME280;35806;47.958;13.158;2023-07-31T00:18:16;94866.81;;;16.88;49.52
49915;BME280;35806;47.958;13.158;2023-07-31T00:20:43;94864.37;;;17.11;48.54
49915;BME280;35806;47.958;13.158;2023-07-31T00:23:11;94868.08;;;17.26;48.64
49915;BME280;35806;47.958;13.158;2023-07-31T00:25:39;94861.44;;;17.27;48.69
49915;BME280;35806;47.958;13.158;2023-07-31T00:28:06;94868.14;;;17.48;48.32
49915;BME280;35806;47.958;13.158;2023-07-31T00:30:34;94871.69;;;16.89;48.61
49915;BME280;35806;47.958;13.158;2023-07-31T00:33:01;94864.39;;;17.11;47.23
49915;BME280;35806;47.958;13.158;2023-07-31T00:35:28;94869.42;;;17.14;47.58
49915;BME280;35806;47.958;13.158;2023-07-31T00:37:57;94863.70;;;17.69;48.50
49915;BME280;35806;47.958;13.158;2023-07-31T00:40:24;94865.22;;;17.22;47.68
49915;BME280;35806;47.958;13.158;2023-07-31T00:42:52;94864.62;;;17.26;47.11
49915;BME280;35806;47.958;13.158;2023-07-31T00:45:19;94864.64;;;17.53;46.06
49915;BME280;35806;47.958;13.158;2023-07-31T00:47:47;94865.63;;;16.03;48.72
49915;BME280;35806;47.958;13.158;2023-07-31T00:50:14;94866.49;;;16.87;48.14
49915;BME280;35806;47.958;13.158;2023-07-31T00:52:41;94866.01;;;16.64;47.54
49915;BME280;35806;47.958;13.158;2023-07-31T00:55:09;94865.68;;;16.63;48.02
49915;BME280;35806;47.958;13.158;2023-07-31T00:57:37;94867.47;;;15.89;49.20
49915;BME280;35806;47.958;13.158;2023-07-31T01:15:29;94848.11;;;15.70;45.25
49915;BME280;35806;47.958;13.158;2023-07-31T01:17:57;94845.92;;;16.85;45.80
49915;BME280;35806;47.958;13.158;2023-07-31T01:20:26;94845.75;;;16.88;45.55
49915;BME280;35806;47.958;13.158;2023-07-31T01:23:40;94837.76;;;16.48;45.98
49915;BME280;35806;47.958;13.158;2023-07-31T01:26:19;94832.60;;;16.47;46.24
49915;BME280;35806;47.958;13.158;2023-07-31T01:28:53;94827.34;;;16.18;46.30
49915;BME280;35806;47.958;13.158;2023-07-31T01:31:23;94827.17;;;16.62;46.50
49915;BME280;35806;47.958;13.158;2023-07-31T01:33:54;94832.10;;;16.41;47.06
49915;BME280;35806;47.958;13.158;2023-07-31T01:36:23;94830.34;;;16.48;47.99
49915;BME280;35806;47.958;13.158;2023-07-31T01:38:51;94825.45;;;16.59;47.21
49915;BME280;35806;47.958;13.158;2023-07-31T01:41:19;94819.00;;;16.57;49.57
49915;BME280;35806;47.958;13.158;2023-07-31T01:43:47;94817.75;;;16.14;46.76
49915;BME280;35806;47.958;13.158;2023-07-31T01:46:14;94818.04;;;16.33;49.19
49915;BME280;35806;47.958;13.158;2023-07-31T01:48:42;94816.98;;;16.21;52.39
49915;BME280;35806;47.958;13.158;2023-07-31T01:51:09;94818.65;;;16.14;48.49
49915;BME280;35806;47.958;13.158;2023-07-31T01:53:36;94816.88;;;16.21;51.64
49915;BME280;35806;47.958;13.158;2023-07-31T01:56:04;94812.00;;;16.02;52.48
49915;BME280;35806;47.958;13.158;2023-07-31T01:58:32;94809.82;;;16.02;51.44
49915;BME280;35806;47.958;13.158;2023-07-31T02:00:59;94810.82;;;16.02;53.29
49915;BME280;35806;47.958;13.158;2023-07-31T02:03:27;94814.04;;;15.80;52.38
49915;BME280;35806;47.958;13.158;2023-07-31T02:05:54;94810.92;;;15.78;50.81
49915;BME280;35806;47.958;13.158;2023-07-31T02:08:21;94818.09;;;15.55;50.62
49915;BME280;35806;47.958;13.158;2023-07-31T02:10:49;94811.66;;;15.58;51.74
49915;BME280;35806;47.958;13.158;2023-07-31T02:13:16;94805.86;;;15.59;55.13
49915;BME280;35806;47.958;13.158;2023-07-31T02:15:45;94805.76;;;15.59;52.06
49915;BME280;35806;47.958;13.158;2023-07-31T02:18:12;94802.57;;;15.92;55.33
49915;BME280;35806;47.958;13.158;2023-07-31T02:20:49;94799.96;;;15.59;54.81
49915;BME280;35806;47.958;13.158;2023-07-31T02:23:17;94791.75;;;15.90;55.09
49915;BME280;35806;47.958;13.158;2023-07-31T02:25:44;94791.46;;;15.26;52.77
49915;BME280;35806;47.958;13.158;2023-07-31T02:28:12;94791.92;;;15.68;55.95
49915;BME280;35806;47.958;13.158;2023-07-31T02:30:40;94793.15;;;15.42;55.83
49915;BME280;35806;47.958;13.158;2023-07-31T02:33:07;94791.10;;;15.39;56.30
49915;BME280;35806;47.958;13.158;2023-07-31T02:35:34;94791.38;;;15.54;56.22
49915;BME280;35806;47.958;13.158;2023-07-31T02:38:01;94789.70;;;15.54;53.75
49915;BME280;35806;47.958;13.158;2023-07-31T02:40:28;94791.83;;;15.72;51.25
49915;BME280;35806;47.958;13.158;2023-07-31T02:42:56;94790.67;;;15.42;51.50
49915;BME280;35806;47.958;13.158;2023-07-31T02:45:23;94788.66;;;15.43;52.84
49915;BME280;35806;47.958;13.158;2023-07-31T02:47:51;94785.28;;;15.24;56.69
49915;BME280;35806;47.958;13.158;2023-07-31T02:50:18;94790.69;;;15.31;56.15
49915;BME280;35806;47.958;13.158;2023-07-31T02:52:46;94795.33;;;15.14;53.81
49915;BME280;35806;47.958;13.158;2023-07-31T02:55:14;94793.22;;;15.30;55.46
49915;BME280;35806;47.958;13.158;2023-07-31T02:57:41;94794.16;;;15.14;52.63
49915;BME280;35806;47.958;13.158;2023-07-31T03:00:09;94793.87;;;15.14;54.34
49915;BME280;35806;47.958;13.158;2023-07-31T03:02:36;94795.44;;;15.03;57.70
49915;BME280;35806;47.958;13.158;2023-07-31T03:05:04;94794.99;;;15.62;57.34
49915;BME280;35806;47.958;13.158;2023-07-31T03:07:31;94793.47;;;15.55;56.82
49915;BME280;35806;47.958;13.158;2023-07-31T03:09:59;94794.99;;;15.58;58.58
49915;BME280;35806;47.958;13.158;2023-07-31T03:12:26;94787.28;;;15.76;57.04
49915;BME280;35806;47.958;13.158;2023-07-31T03:14:54;94783.38;;;15.67;57.81
49915;BME280;35806;47.958;13.158;2023-07-31T03:17:21;94781.67;;;15.36;58.08
49915;BME280;35806;47.958;13.158;2023-07-31T03:19:49;94782.79;;;15.28;56.75
49915;BME280;35806;47.958;13.158;2023-07-31T03:22:16;94786.94;;;15.81;56.15
49915;BME280;35806;47.958;13.158;2023-07-31T03:24:44;94786.57;;;15.56;58.22
49915;BME280;35806;47.958;13.158;2023-07-31T03:27:11;94784.47;;;15.60;56.37
49915;BME280;35806;47.958;13.158;2023-07-31T03:29:38;94778.58;;;15.18;58.08
49915;BME280;35806;47.958;13.158;2023-07-31T03:32:07;94781.24;;;15.42;58.20
49915;BME280;35806;47.958;13.158;2023-07-31T03:34:33;94779.81;;;15.07;57.65
49915;BME280;35806;47.958;13.158;2023-07-31T03:37:01;94781.73;;;15.46;58.23
49915;BME280;35806;47.958;13.158;2023-07-31T03:39:28;94776.55;;;15.42;58.78
49915;BME280;35806;47.958;13.158;2023-07-31T03:41:56;94772.79;;;15.10;59.11
49915;BME280;35806;47.958;13.158;2023-07-31T03:44:24;94773.56;;;15.38;58.91
49915;BME280;35806;47.958;13.158;2023-07-31T03:46:51;94778.14;;;14.93;57.92
49915;BME280;35806;47.958;13.158;2023-07-31T03:49:18;94778.89;;;15.19;58.31
49915;BME280;35806;47.958;13.158;2023-07-31T03:51:46;94776.13;;;15.00;55.41
49915;BME280;35806;47.958;13.158;2023-07-31T03:54:13;94779.61;;;14.87;53.94
49915;BME280;35806;47.958;13.158;2023-07-31T03:56:42;94784.05;;;15.04;53.34
49915;BME280;35806;47.958;13.158;2023-07-31T03:59:08;94782.99;;;15.05;54.49
49915;BME280;35806;47.958;13.158;2023-07-31T04:01:36;94784.15;;;15.02;54.14
49915;BME280;35806;47.958;13.158;2023-07-31T04:04:04;94781.96;;;15.07;55.51
49915;BME280;35806;47.958;13.158;2023-07-31T04:06:31;94780.85;;;15.14;57.23
49915;BME280;35806;47.958;13.158;2023-07-31T04:08:59;94781.33;;;15.26;55.05
49915;BME280;35806;47.958;13.158;2023-07-31T04:11:26;94780.17;;;15.34;54.48
49915;BME280;35806;47.958;13.158;2023-07-31T04:13:54;94779.31;;;14.97;56.64
49915;BME280;35806;47.958;13.158;2023-07-31T04:16:21;94783.78;;;15.53;57.69
49915;BME280;35806;47.958;13.158;2023-07-31T04:18:49;94785.61;;;15.44;55.75
49915;BME280;35806;47.958;13.158;2023-07-31T04:21:16;94784.53;;;15.64;54.11
49915;BME280;35806;47.958;13.158;2023-07-31T04:23:44;94781.80;;;15.34;54.14
49915;BME280;35806;47.958;13.158;2023-07-31T04:26:11;94780.65;;;15.70;56.06
49915;BME280;35806;47.958;13.158;2023-07-31T04:28:38;94782.46;;;15.73;54.97
49915;BME280;35806;47.958;13.158;2023-07-31T04:31:06;94786.00;;;15.82;55.02
49915;BME280;35806;47.958;13.158;2023-07-31T04:33:33;94785.17;;;15.69;54.99
49915;BME280;35806;47.958;13.158;2023-07-31T04:36:00;94783.63;;;16.06;54.67
49915;BME280;35806;47.958;13.158;2023-07-31T04:38:28;94774.27;;;16.15;56.77
49915;BME280;35806;47.958;13.158;2023-07-31T04:41:06;94774.52;;;15.22;54.91
49915;BME280;35806;47.958;13.158;2023-07-31T04:43:34;94776.48;;;16.06;56.73
49915;BME280;35806;47.958;13.158;2023-07-31T04:46:01;94784.21;;;16.48;56.39
49915;BME280;35806;47.958;13.158;2023-07-31T04:48:28;94781.26;;;16.57;57.69
49915;BME280;35806;47.958;13.158;2023-07-31T04:50:55;94776.12;;;16.57;56.07
49915;BME280;35806;47.958;13.158;2023-07-31T04:53:23;94774.25;;;16.68;54.91
49915;BME280;35806;47.958;13.158;2023-07-31T04:55:51;94774.04;;;16.65;56.47
49915;BME280;35806;47.958;13.158;2023-07-31T04:58:18;94769.11;;;17.47;54.53
49915;BME280;35806;47.958;13.158;2023-07-31T05:00:45;94762.51;;;17.14;54.75
49915;BME280;35806;47.958;13.158;2023-07-31T05:03:13;94760.12;;;17.30;54.34
49915;BME280;35806;47.958;13.158;2023-07-31T05:05:41;94757.54;;;17.80;55.10
49915;BME280;35806;47.958;13.158;2023-07-31T05:08:08;94759.36;;;17.86;54.29
49915;BME280;35806;47.958;13.158;2023-07-31T05:10:36;94757.62;;;17.91;52.22
49915;BME280;35806;47.958;13.158;2023-07-31T05:13:03;94756.64;;;17.83;51.23
49915;BME280;35806;47.958;13.158;2023-07-31T05:15:31;94757.59;;;18.07;50.17
49915;BME280;35806;47.958;13.158;2023-07-31T05:17:58;94755.76;;;18.28;52.27
49915;BME280;35806;47.958;13.158;2023-07-31T05:20:26;94755.28;;;18.26;53.77
49915;BME280;35806;47.958;13.158;2023-07-31T05:22:54;94754.17;;;17.95;53.31
49915;BME280;35806;47.958;13.158;2023-07-31T05:25:21;94758.17;;;18.26;53.64
49915;BME280;35806;47.958;13.158;2023-07-31T05:27:48;94759.42;;;17.99;53.39
49915;BME280;35806;47.958;13.158;2023-07-31T05:30:16;94762.43;;;18.08;51.10
49915;BME280;35806;47.958;13.158;2023-07-31T05:32:44;94758.94;;;18.50;51.71
49915;BME280;35806;47.958;13.158;2023-07-31T05:35:11;94759.45;;;18.56;52.31
49915;BME280;35806;47.958;13.158;2023-07-31T05:37:38;94759.65;;;18.28;50.33
49915;BME280;35806;47.958;13.158;2023-07-31T05:40:07;94763.39;;;18.15;52.28
49915;BME280;35806;47.958;13.158;2023-07-31T05:42:35;94761.16;;;18.61;52.54
49915;BME280;35806;47.958;13.158;2023-07-31T05:45:03;94761.96;;;18.40;51.49
49915;BME280;35806;47.958;13.158;2023-07-31T05:47:31;94763.31;;;18.07;50.97
49915;BME280;35806;47.958;13.158;2023-07-31T05:49:58;94762.80;;;17.98;48.81
49915;BME280;35806;47.958;13.158;2023-07-31T05:52:26;94765.77;;;18.58;50.06
49915;BME280;35806;47.958;13.158;2023-07-31T05:54:53;94768.13;;;18.67;48.95
49915;BME280;35806;47.958;13.158;2023-07-31T05:57:21;94765.53;;;18.82;50.28
49915;BME280;35806;47.958;13.158;2023-07-31T05:59:48;94762.18;;;18.66;50.24
49915;BME280;35806;47.958;13.158;2023-07-31T06:02:16;94758.37;;;19.33;49.87
49915;BME280;35806;47.958;13.158;2023-07-31T06:04:43;94757.81;;;19.14;48.90
49915;BME280;35806;47.958;13.158;2023-07-31T06:07:10;94755.68;;;19.28;49.20
49915;BME280;35806;47.958;13.158;2023-07-31T06:09:38;94754.79;;;19.21;48.96
49915;BME280;35806;47.958;13.158;2023-07-31T06:12:06;94753.98;;;18.91;47.27
49915;BME280;35806;47.958;13.158;2023-07-31T06:14:34;94751.54;;;19.53;47.82
49915;BME280;35806;47.958;13.158;2023-07-31T06:17:01;94748.30;;;19.40;46.79
49915;BME280;35806;47.958;13.158;2023-07-31T06:19:29;94746.35;;;19.55;47.04
49915;BME280;35806;47.958;13.158;2023-07-31T06:21:56;94747.14;;;19.10;46.21
49915;BME280;35806;47.958;13.158;2023-07-31T06:24:24;94746.12;;;19.58;47.09
49915;BME280;35806;47.958;13.158;2023-07-31T06:26:51;94746.46;;;19.62;47.37
49915;BME280;35806;47.958;13.158;2023-07-31T06:29:19;94746.49;;;19.73;47.38
49915;BME280;35806;47.958;13.158;2023-07-31T06:31:46;94747.91;;;19.94;45.90
49915;BME280;35806;47.958;13.158;2023-07-31T06:34:14;94742.94;;;19.81;45.83
49915;BME280;35806;47.958;13.158;2023-07-31T06:36:42;94744.81;;;20.14;46.60
49915;BME280;35806;47.958;13.158;2023-07-31T06:39:08;94742.71;;;20.20;45.88
49915;BME280;35806;47.958;13.158;2023-07-31T06:41:36;94744.91;;;20.49;44.04
49915;BME280;35806;47.958;13.158;2023-07-31T06:44:04;94748.57;;;20.19;44.78
49915;BME280;35806;47.958;13.158;2023-07-31T06:46:31;94746.28;;;20.43;44.72
49915;BME280;35806;47.958;13.158;2023-07-31T06:49:26;94745.01;;;20.66;43.43
49915;BME280;35806;47.958;13.158;2023-07-31T06:51:54;94746.03;;;20.53;43.71
49915;BME280;35806;47.958;13.158;2023-07-31T06:54:24;94744.88;;;21.12;42.91
49915;BME280;35806;47.958;13.158;2023-07-31T06:56:51;94744.31;;;20.74;42.95
49915;BME280;35806;47.958;13.158;2023-07-31T06:59:19;94741.86;;;20.85;43.47
49915;BME280;35806;47.958;13.158;2023-07-31T07:01:46;94741.89;;;21.04;43.30
49915;BME280;35806;47.958;13.158;2023-07-31T07:04:14;94744.17;;;20.72;44.06
49915;BME280;35806;47.958;13.158;2023-07-31T07:06:41;94741.52;;;21.41;43.81
49915;BME280;35806;47.958;13.158;2023-07-31T07:09:08;94737.03;;;22.02;41.44
49915;BME280;35806;47.958;13.158;2023-07-31T07:11:36;94738.94;;;21.82;41.26
49915;BME280;35806;47.958;13.158;2023-07-31T07:14:03;94737.12;;;21.41;42.29
49915;BME280;35806;47.958;13.158;2023-07-31T07:16:31;94738.08;;;21.33;41.53
49915;BME280;35806;47.958;13.158;2023-07-31T07:18:58;94735.98;;;21.72;42.04
49915;BME280;35806;47.958;13.158;2023-07-31T07:21:26;94727.53;;;21.81;41.59
49915;BME280;35806;47.958;13.158;2023-07-31T07:23:53;94730.64;;;21.49;42.72
49915;BME280;35806;47.958;13.158;2023-07-31T07:26:21;94726.21;;;21.87;42.77
49915;BME280;35806;47.958;13.158;2023-07-31T07:28:48;94727.93;;;21.66;42.07
49915;BME280;35806;47.958;13.158;2023-07-31T07:31:16;94728.42;;;21.59;41.90
49915;BME280;35806;47.958;13.158;2023-07-31T07:33:43;94726.04;;;21.73;40.85
49915;BME280;35806;47.958;13.158;2023-07-31T07:36:11;94724.05;;;22.21;38.61
49915;BME280;35806;47.958;13.158;2023-07-31T07:38:38;94721.75;;;22.10;41.77
49915;BME280;35806;47.958;13.158;2023-07-31T07:41:05;94723.30;;;21.95;37.94
49915;BME280;35806;47.958;13.158;2023-07-31T07:43:33;94720.70;;;21.99;42.45
49915;BME280;35806;47.958;13.158;2023-07-31T07:46:00;94722.44;;;22.12;41.22
49915;BME280;35806;47.958;13.158;2023-07-31T07:48:28;94722.50;;;22.44;39.64
49915;BME280;35806;47.958;13.158;2023-07-31T07:50:55;94722.76;;;22.06;39.65
49915;BME280;35806;47.958;13.158;2023-07-31T07:53:23;94724.70;;;22.06;37.60
49915;BME280;35806;47.958;13.158;2023-07-31T07:55:50;94726.94;;;22.24;39.61
49915;BME280;35806;47.958;13.158;2023-07-31T07:58:17;94724.24;;;22.45;38.91
49915;BME280;35806;47.958;13.158;2023-07-31T08:00:48;94725.94;;;21.79;38.99
49915;BME280;35806;47.958;13.158;2023-07-31T08:03:21;94723.55;;;22.35;37.56
49915;BME280;35806;47.958;13.158;2023-07-31T08:05:48;94724.11;;;22.43;38.07
49915;BME280;35806;47.958;13.158;2023-07-31T08:08:15;94722.64;;;22.28;36.69
49915;BME280;35806;47.958;13.158;2023-07-31T08:10:43;94726.01;;;22.17;38.80
49915;BME280;35806;47.958;13.158;2023-07-31T08:13:11;94725.75;;;22.28;36.80
49915;BME280;35806;47.958;13.158;2023-07-31T08:15:41;94722.63;;;21.74;37.23
49915;BME280;35806;47.958;13.158;2023-07-31T08:18:08;94717.51;;;21.48;38.75
49915;BME280;35806;47.958;13.158;2023-07-31T08:20:36;94715.54;;;21.97;39.35
49915;BME280;35806;47.958;13.158;2023-07-31T08:23:04;94717.89;;;21.75;43.10
49915;BME280;35806;47.958;13.158;2023-07-31T08:25:34;94715.91;;;22.07;40.67
49915;BME280;35806;47.958;13.158;2023-07-31T08:28:02;94710.68;;;21.99;38.21
49915;BME280;35806;47.958;13.158;2023-07-31T08:30:29;94710.86;;;22.42;39.38
49915;BME280;35806;47.958;13.158;2023-07-31T08:32:57;94712.64;;;22.33;41.02
49915;BME280;35806;47.958;13.158;2023-07-31T08:35:24;94711.11;;;22.34;40.07
49915;BME280;35806;47.958;13.158;2023-07-31T08:37:52;94708.32;;;22.56;38.04
49915;BME280;35806;47.958;13.158;2023-07-31T08:40:19;94707.07;;;23.11;37.35
49915;BME280;35806;47.958;13.158;2023-07-31T08:42:48;94704.62;;;22.49;37.61
49915;BME280;35806;47.958;13.158;2023-07-31T08:45:18;94707.21;;;22.29;37.51
49915;BME280;35806;47.958;13.158;2023-07-31T08:47:46;94708.25;;;21.96;35.71
49915;BME280;35806;47.958;13.158;2023-07-31T08:50:16;94710.27;;;21.94;36.77
49915;BME280;35806;47.958;13.158;2023-07-31T08:52:43;94709.82;;;22.34;38.00
49915;BME280;35806;47.958;13.158;2023-07-31T08:55:10;94708.06;;;22.49;42.07
49915;BME280;35806;47.958;13.158;2023-07-31T08:57:39;94701.52;;;22.61;40.80
49915;BME280;35806;47.958;13.158;2023-07-31T09:00:10;94697.90;;;22.61;38.33
49915;BME280;35806;47.958;13.158;2023-07-31T09:02:43;94693.53;;;22.57;35.75
49915;BME280;35806;47.958;13.158;2023-07-31T09:05:12;94690.20;;;22.17;34.93
49915;BME280;35806;47.958;13.158;2023-07-31T09:07:41;94689.99;;;22.62;38.24
49915;BME280;35806;47.958;13.158;2023-07-31T09:10:10;94686.09;;;22.90;38.48
49915;BME280;35806;47.958;13.158;2023-07-31T09:12:38;94685.29;;;23.21;36.72
49915;BME280;35806;47.958;13.158;2023-07-31T09:15:06;94682.37;;;22.98;36.43
49915;BME280;35806;47.958;13.158;2023-07-31T09:17:35;94681.09;;;23.40;36.60
49915;BME280;35806;47.958;13.158;2023-07-31T09:20:16;94679.22;;;23.34;41.24
49915;BME280;35806;47.958;13.158;2023-07-31T09:22:44;94676.62;;;22.78;37.47
49915;BME280;35806;47.958;13.158;2023-07-31T09:25:16;94682.66;;;23.66;36.06
49915;BME280;35806;47.958;13.158;2023-07-31T09:27:49;94681.44;;;22.96;39.85
49915;BME280;35806;47.958;13.158;2023-07-31T09:30:17;94680.07;;;23.80;36.64
49915;BME280;35806;47.958;13.158;2023-07-31T09:32:44;94680.03;;;23.98;36.83
49915;BME280;35806;47.958;13.158;2023-07-31T09:35:18;94678.05;;;23.89;37.44
49915;BME280;35806;47.958;13.158;2023-07-31T09:37:50;94671.94;;;23.95;35.31
49915;BME280;35806;47.958;13.158;2023-07-31T09:40:26;94669.40;;;24.12;34.26
49915;BME280;35806;47.958;13.158;2023-07-31T09:42:56;94668.94;;;24.08;35.15
49915;BME280;35806;47.958;13.158;2023-07-31T09:45:25;94668.25;;;24.45;37.01
49915;BME280;35806;47.958;13.158;2023-07-31T09:47:52;94665.77;;;24.49;38.03
49915;BME280;35806;47.958;13.158;2023-07-31T09:50:21;94661.94;;;23.33;36.02
49915;BME280;35806;47.958;13.158;2023-07-31T09:52:48;94661.92;;;23.88;35.15
49915;BME280;35806;47.958;13.158;2023-07-31T09:55:16;94661.73;;;24.08;36.89
49915;BME280;35806;47.958;13.158;2023-07-31T09:57:46;94658.68;;;23.40;37.06
49915;BME280;35806;47.958;13.158;2023-07-31T10:00:15;94658.82;;;23.10;37.27
49915;BME280;35806;47.958;13.158;2023-07-31T10:02:45;94652.66;;;23.59;36.40
49915;BME280;35806;47.958;13.158;2023-07-31T10:05:14;94652.72;;;22.85;37.13
49915;BME280;35806;47.958;13.158;2023-07-31T10:07:45;94648.86;;;22.41;36.53
49915;BME280;35806;47.958;13.158;2023-07-31T10:10:15;94641.90;;;22.23;37.12
49915;BME280;35806;47.958;13.158;2023-07-31T10:12:44;94637.66;;;23.08;41.03
49915;BME280;35806;47.958;13.158;2023-07-31T10:15:13;94637.99;;;24.13;36.71
49915;BME280;35806;47.958;13.158;2023-07-31T10:17:42;94630.83;;;23.00;38.60
49915;BME280;35806;47.958;13.158;2023-07-31T10:20:10;94631.76;;;22.25;37.78
49915;BME280;35806;47.958;13.158;2023-07-31T10:22:38;94627.05;;;22.32;39.08
49915;BME280;35806;47.958;13.158;2023-07-31T10:25:08;94624.03;;;22.86;37.60
49915;BME280;35806;47.958;13.158;2023-07-31T10:27:36;94622.50;;;21.96;37.97
49915;BME280;35806;47.958;13.158;2023-07-31T10:30:08;94618.51;;;21.97;38.63
49915;BME280;35806;47.958;13.158;2023-07-31T10:32:38;94617.45;;;22.14;37.90
49915;BME280;35806;47.958;13.158;2023-07-31T10:35:12;94616.64;;;22.00;38.09
49915;BME280;35806;47.958;13.158;2023-07-31T10:37:43;94611.61;;;21.64;38.29
49915;BME280;35806;47.958;13.158;2023-07-31T10:40:11;94610.45;;;22.27;38.59
49915;BME280;35806;47.958;13.158;2023-07-31T10:42:45;94606.80;;;21.87;39.85
49915;BME280;35806;47.958;13.158;2023-07-31T10:45:24;94604.77;;;21.24;40.77
49915;BME280;35806;47.958;13.158;2023-07-31T10:47:58;94596.68;;;21.82;40.38
49915;BME280;35806;47.958;13.158;2023-07-31T10:50:26;94599.99;;;22.15;43.71
49915;BME280;35806;47.958;13.158;2023-07-31T10:52:55;94599.00;;;21.92;42.00
49915;BME280;35806;47.958;13.158;2023-07-31T10:55:27;94598.48;;;22.29;39.31
49915;BME280;35806;47.958;13.158;2023-07-31T10:57:56;94593.67;;;22.39;42.16
49915;BME280;35806;47.958;13.158;2023-07-31T11:00:26;94592.33;;;22.61;42.08
49915;BME280;35806;47.958;13.158;2023-07-31T11:02:57;94586.93;;;22.77;39.61
49915;BME280;35806;47.958;13.158;2023-07-31T11:06:02;94588.52;;;22.88;41.33
49915;BME280;35806;47.958;13.158;2023-07-31T11:08:30;94587.42;;;23.15;38.01
49915;BME280;35806;47.958;13.158;2023-07-31T11:11:06;94585.49;;;22.93;37.09
49915;BME280;35806;47.958;13.158;2023-07-31T11:13:40;94582.39;;;23.39;39.66
49915;BME280;35806;47.958;13.158;2023-07-31T11:16:13;94583.37;;;23.11;38.18
49915;BME280;35806;47.958;13.158;2023-07-31T11:18:41;94582.54;;;23.49;37.76
49915;BME280;35806;47.958;13.158;2023-07-31T11:21:12;94582.19;;;22.44;38.56
49915;BME280;35806;47.958;13.158;2023-07-31T11:23:41;94578.77;;;21.75;40.12
49915;BME280;35806;47.958;13.158;2023-07-31T11:26:08;94575.27;;;23.26;39.64
49915;BME280;35806;47.958;13.158;2023-07-31T11:28:36;94573.67;;;23.27;35.83
49915;BME280;35806;47.958;13.158;2023-07-31T11:31:03;94572.44;;;23.11;39.82
49915;BME280;35806;47.958;13.158;2023-07-31T11:33:32;94572.63;;;23.58;36.86
49915;BME280;35806;47.958;13.158;2023-07-31T11:35:59;94572.48;;;23.77;37.46
49915;BME280;35806;47.958;13.158;2023-07-31T11:38:28;94573.08;;;24.53;38.84
49915;BME280;35806;47.958;13.158;2023-07-31T11:40:56;94565.06;;;24.36;36.62
49915;BME280;35806;47.958;13.158;2023-07-31T11:43:23;94565.67;;;25.00;36.30
49915;BME280;35806;47.958;13.158;2023-07-31T11:45:52;94562.58;;;24.50;36.93
49915;BME280;35806;47.958;13.158;2023-07-31T11:48:20;94564.10;;;24.67;36.64
49915;BME280;35806;47.958;13.158;2023-07-31T11:50:49;94558.93;;;24.93;35.39
49915;BME280;35806;47.958;13.158;2023-07-31T11:53:21;94554.86;;;25.20;37.14
49915;BME280;35806;47.958;13.158;2023-07-31T11:55:50;94557.10;;;24.09;34.42
49915;BME280;35806;47.958;13.158;2023-07-31T11:58:18;94549.54;;;23.31;37.18
49915;BME280;35806;47.958;13.158;2023-07-31T12:00:47;94550.32;;;22.70;37.84
49915;BME280;35806;47.958;13.158;2023-07-31T12:03:15;94541.94;;;24.42;36.57
49915;BME280;35806;47.958;13.158;2023-07-31T12:05:43;94541.37;;;24.25;37.35
49915;BME280;35806;47.958;13.158;2023-07-31T12:08:11;94535.91;;;24.73;37.16
49915;BME280;35806;47.958;13.158;2023-07-31T12:10:39;94538.79;;;24.24;35.70
49915;BME280;35806;47.958;13.158;2023-07-31T12:13:08;94534.06;;;24.70;35.92
49915;BME280;35806;47.958;13.158;2023-07-31T12:15:37;94532.99;;;24.78;35.43
49915;BME280;35806;47.958;13.158;2023-07-31T12:18:08;94531.53;;;23.80;37.33
49915;BME280;35806;47.958;13.158;2023-07-31T12:20:40;94530.91;;;23.70;37.13
49915;BME280;35806;47.958;13.158;2023-07-31T12:23:12;94524.68;;;22.66;37.28
49915;BME280;35806;47.958;13.158;2023-07-31T12:25:40;94512.24;;;23.37;37.13
49915;BME280;35806;47.958;13.158;2023-07-31T12:28:07;94507.67;;;23.90;36.33
49915;BME280;35806;47.958;13.158;2023-07-31T12:30:35;94505.60;;;23.98;36.10
49915;BME280;35806;47.958;13.158;2023-07-31T12:33:06;94499.87;;;22.53;37.16
49915;BME280;35806;47.958;13.158;2023-07-31T12:35:36;94495.36;;;23.18;37.25
49915;BME280;35806;47.958;13.158;2023-07-31T12:38:04;94489.55;;;23.29;38.43
49915;BME280;35806;47.958;13.158;2023-07-31T12:40:31;94482.27;;;23.62;37.35
49915;BME280;35806;47.958;13.158;2023-07-31T12:43:01;94475.26;;;23.36;37.94
49915;BME280;35806;47.958;13.158;2023-07-31T12:45:29;94469.31;;;23.91;35.54
49915;BME280;35806;47.958;13.158;2023-07-31T12:47:56;94459.52;;;24.41;35.67
49915;BME280;35806;47.958;13.158;2023-07-31T12:50:24;94460.28;;;24.51;35.25
49915;BME280;35806;47.958;13.158;2023-07-31T12:52:52;94458.29;;;24.67;34.41
49915;BME280;35806;47.958;13.158;2023-07-31T12:55:19;94451.78;;;24.74;34.24
49915;BME280;35806;47.958;13.158;2023-07-31T12:57:47;94448.16;;;23.52;35.53
49915;BME280;35806;47.958;13.158;2023-07-31T13:00:15;94447.62;;;23.93;35.45
49915;BME280;35806;47.958;13.158;2023-07-31T13:02:42;94446.91;;;24.28;35.55
49915;BME280;35806;47.958;13.158;2023-07-31T13:05:09;94442.55;;;24.18;36.09
49915;BME280;35806;47.958;13.158;2023-07-31T13:07:37;94435.53;;;24.77;35.18
49915;BME280;35806;47.958;13.158;2023-07-31T13:10:06;94433.92;;;25.06;35.78
49915;BME280;35806;47.958;13.158;2023-07-31T13:12:34;94431.04;;;24.82;33.89